Time;durP1;ratioP1;P1;durP2;ratioP2;P2;SDS_P1;SDS_P2;PMS_P1;PMS_P2;Temp;Humidity;BMP_temperature;BMP_pressure;BME280_temperature;BME280_humidity;BME280_pressure;Samples;Min_cycle;Max_cycle;Signal;HPM_P1;HPM_P2
2021/12/06 00:00:28;;;;;;;12.30;6.22;;;;;;;0.83;90.16;95856.56;5001257;28;20045;-73
2021/12/06 00:02:55;;;;;;;11.85;5.85;;;;;;;0.88;90.02;95856.00;4982799;28;20049;-71
2021/12/06 00:05:24;;;;;;;10.23;5.72;;;;;;;0.84;89.36;95853.75;5001207;28;20022;-73
2021/12/06 00:07:49;;;;;;;14.80;6.07;;;;;;;0.70;89.74;95851.28;5001362;28;20052;-72
2021/12/06 00:10:15;;;;;;;14.90;7.05;;;;;;;0.57;90.03;95852.09;5001594;28;20397;-75
2021/12/06 00:12:42;;;;;;;12.55;6.20;;;;;;;0.51;90.38;95853.72;5001886;28;20116;-71
2021/12/06 00:15:09;;;;;;;10.18;5.05;;;;;;;0.47;90.48;95856.97;5002139;28;20030;-71
2021/12/06 00:17:35;;;;;;;14.90;6.47;;;;;;;0.40;91.46;95856.94;5005316;28;20038;-72
2021/12/06 00:20:01;;;;;;;18.02;6.47;;;;;;;0.32;92.05;95865.03;5005579;28;20038;-72
2021/12/06 00:22:26;;;;;;;16.55;6.63;;;;;;;0.29;92.25;95860.13;5005552;28;20049;-72
2021/12/06 00:24:56;;;;;;;16.63;6.32;;;;;;;0.25;91.72;95857.09;5005912;28;20049;-71
2021/12/06 00:27:23;;;;;;;10.23;5.38;;;;;;;0.17;92.62;95846.75;5005479;28;20088;-71
2021/12/06 00:29:49;;;;;;;9.25;4.70;;;;;;;0.11;92.58;95855.44;5006048;28;20026;-70
2021/12/06 00:32:15;;;;;;;9.90;5.18;;;;;;;-0.01;93.20;95846.47;5001857;28;20220;-73
2021/12/06 00:34:42;;;;;;;9.43;4.68;;;;;;;0.06;93.53;95855.22;4990149;28;20307;-73
2021/12/06 00:37:29;;;;;;;9.32;5.20;;;;;;;0.18;92.79;95864.16;5004223;28;20041;-71
2021/12/06 00:39:58;;;;;;;8.80;4.88;;;;;;;0.23;92.28;95867.03;5004407;28;20033;-73
2021/12/06 00:42:27;;;;;;;13.85;7.07;;;;;;;0.22;92.26;95870.66;5003196;28;20351;-71
2021/12/06 00:44:53;;;;;;;12.95;5.82;;;;;;;0.22;92.78;95873.28;5004792;28;20036;-71
2021/12/06 00:47:19;;;;;;;9.05;5.22;;;;;;;0.27;92.01;95873.50;5004180;28;20083;-71
2021/12/06 00:49:47;;;;;;;11.63;5.43;;;;;;;0.36;92.56;95874.13;4991697;28;20041;-72
2021/12/06 00:52:13;;;;;;;9.43;5.28;;;;;;;0.41;91.71;95878.81;5004391;28;20071;-71
2021/12/06 00:54:39;;;;;;;9.18;4.70;;;;;;;0.51;92.04;95884.50;5004723;28;20445;-71
2021/12/06 00:57:07;;;;;;;8.13;4.13;;;;;;;0.47;91.58;95884.09;5004135;28;20213;-72
2021/12/06 00:59:34;;;;;;;8.27;4.63;;;;;;;0.49;91.45;95881.25;4981465;28;20039;-72
2021/12/06 01:02:00;;;;;;;9.88;5.13;;;;;;;0.48;91.30;95880.44;5000717;28;20129;-72
2021/12/06 01:04:31;;;;;;;9.13;4.78;;;;;;;0.53;90.84;95890.38;4992279;28;20049;-72
2021/12/06 01:06:57;;;;;;;9.60;5.75;;;;;;;0.54;90.61;95889.34;5002775;28;20042;-71
2021/12/06 01:09:24;;;;;;;8.88;5.40;;;;;;;0.55;91.25;95901.53;5005516;28;20400;-72
2021/12/06 01:11:50;;;;;;;10.40;5.63;;;;;;;0.60;90.55;95898.28;5004664;28;20107;-71
2021/12/06 01:14:17;;;;;;;11.13;5.03;;;;;;;0.67;90.30;95910.44;4992654;28;20038;-73
2021/12/06 01:16:43;;;;;;;13.23;5.65;;;;;;;0.67;90.80;95912.28;4987471;28;20048;-74
2021/12/06 01:19:09;;;;;;;10.88;5.43;;;;;;;0.68;89.74;95914.72;5003539;28;20034;-73
2021/12/06 01:21:48;;;;;;;11.27;5.07;;;;;;;0.64;89.67;95923.22;4994704;28;20500;-74
2021/12/06 01:24:17;;;;;;;13.80;6.97;;;;;;;0.70;90.32;95925.88;5003534;28;20062;-71
2021/12/06 01:29:36;;;;;;;19.58;7.50;;;;;;;0.70;90.08;95936.41;4984690;28;20034;-72
2021/12/06 01:32:13;;;;;;;17.58;7.50;;;;;;;0.76;90.10;95938.22;4978979;28;20476;-71
2021/12/06 01:40:10;;;;;;;12.38;6.30;;;;;;;0.76;89.92;95948.75;5001134;28;20029;-71
2021/12/06 01:42:36;;;;;;;10.82;5.85;;;;;;;0.69;90.19;95961.09;5005777;28;20040;-72
2021/12/06 01:45:03;;;;;;;12.32;6.55;;;;;;;0.71;89.96;95960.91;5004626;28;20042;-71
2021/12/06 01:47:37;;;;;;;12.07;6.65;;;;;;;0.69;89.94;95961.09;5003778;28;20531;-72
2021/12/06 01:50:13;;;;;;;14.10;6.25;;;;;;;0.69;90.82;95961.09;5003214;28;20049;-72
2021/12/06 01:52:50;;;;;;;14.93;6.57;;;;;;;0.66;90.55;95963.34;5002660;28;20045;-70
2021/12/06 01:55:19;;;;;;;15.40;6.43;;;;;;;0.51;90.82;95966.94;5003464;28;20041;-70
2021/12/06 01:57:47;;;;;;;13.10;6.75;;;;;;;0.52;91.04;95970.38;5004504;28;20058;-69
2021/12/06 02:00:29;;;;;;;11.75;5.93;;;;;;;0.49;91.65;95978.66;5002481;28;20046;-71
2021/12/06 02:03:00;;;;;;;13.13;5.57;;;;;;;0.36;92.00;95976.78;4984650;28;20092;-69
2021/12/06 02:05:33;;;;;;;12.50;5.50;;;;;;;0.25;91.93;95967.63;5001641;28;20041;-69
2021/12/06 02:07:59;;;;;;;12.90;6.55;;;;;;;0.11;93.30;95971.22;5003479;28;20071;-71
2021/12/06 02:10:27;;;;;;;13.57;7.13;;;;;;;0.03;93.06;95968.75;4987096;28;20018;-69
2021/12/06 02:12:54;;;;;;;12.38;6.47;;;;;;;0.16;93.19;95968.81;4985178;28;20030;-71
2021/12/06 02:18:07;;;;;;;13.95;6.35;;;;;;;0.26;92.94;95973.72;5000313;28;20049;-70
2021/12/06 02:20:40;;;;;;;13.00;6.57;;;;;;;0.28;92.69;95974.31;5002981;28;20025;-69
2021/12/06 02:23:06;;;;;;;13.52;6.15;;;;;;;0.34;92.16;95972.75;4980125;28;20049;-69
2021/12/06 02:25:32;;;;;;;12.45;6.30;;;;;;;0.35;91.70;95985.69;5001503;28;20049;-70
2021/12/06 02:27:57;;;;;;;12.90;6.00;;;;;;;0.42;91.89;95991.00;5000945;28;20076;-71
2021/12/06 02:30:23;;;;;;;11.43;5.80;;;;;;;0.45;91.79;95990.59;5002630;28;20046;-69
2021/12/06 02:32:50;;;;;;;12.80;6.07;;;;;;;0.50;91.64;95991.63;5001642;28;20117;-68
2021/12/06 02:35:19;;;;;;;12.43;6.40;;;;;;;0.46;91.32;96000.91;5000335;28;20038;-72
2021/12/06 02:37:46;;;;;;;10.75;5.75;;;;;;;0.44;90.80;95995.03;5001727;28;20031;-69
2021/12/06 02:40:17;;;;;;;14.50;8.10;;;;;;;0.31;91.06;96000.25;5002135;28;20732;-69
2021/12/06 02:42:45;;;;;;;10.63;6.43;;;;;;;0.27;91.64;96006.91;5001715;28;20030;-70
2021/12/06 02:45:13;;;;;;;10.07;6.13;;;;;;;0.31;91.18;96009.97;5002345;28;20038;-68
2021/12/06 02:47:39;;;;;;;10.82;5.55;;;;;;;0.22;91.24;96015.38;5001548;28;20387;-70
2021/12/06 02:50:09;;;;;;;10.10;5.60;;;;;;;0.17;91.68;96014.38;4983494;28;20036;-69
2021/12/06 02:52:36;;;;;;;12.52;6.10;;;;;;;0.11;91.67;96002.78;5003308;28;20512;-68
2021/12/06 02:55:12;;;;;;;10.23;5.60;;;;;;;-0.01;91.59;96002.50;4999470;28;20088;-69
2021/12/06 02:57:38;;;;;;;10.73;6.30;;;;;;;-0.10;92.01;96014.19;5002779;28;20034;-68
2021/12/06 03:00:10;;;;;;;11.35;6.00;;;;;;;-0.13;91.84;96013.78;4999971;28;20058;-69
2021/12/06 03:02:36;;;;;;;13.45;5.90;;;;;;;-0.11;92.03;96017.81;4999951;28;20050;-68
2021/12/06 03:05:04;;;;;;;13.18;5.78;;;;;;;-0.12;92.91;96021.47;4998167;28;20193;-70
2021/12/06 03:07:35;;;;;;;10.63;5.57;;;;;;;-0.18;93.00;96009.06;5001507;28;20041;-71
2021/12/06 03:10:04;;;;;;;11.00;5.47;;;;;;;-0.29;92.06;96022.75;5002161;28;20068;-71
2021/12/06 03:12:29;;;;;;;9.52;5.10;;;;;;;-0.39;92.31;96023.09;4998884;28;20026;-70
2021/12/06 03:14:58;;;;;;;11.55;4.85;;;;;;;-0.50;93.32;96022.78;4999840;28;20038;-71
2021/12/06 03:17:29;;;;;;;9.55;5.43;;;;;;;-0.52;93.56;96025.63;5000329;28;20033;-71
2021/12/06 03:19:58;;;;;;;10.23;5.70;;;;;;;-0.63;93.21;96016.41;5000128;28;20053;-70
2021/12/06 03:22:25;;;;;;;18.15;6.07;;;;;;;-0.81;93.69;96018.69;5003224;28;20112;-70
2021/12/06 03:24:53;;;;;;;11.00;5.97;;;;;;;-0.96;94.93;96025.81;4985615;28;20085;-70
2021/12/06 03:27:20;;;;;;;12.20;5.25;;;;;;;-1.02;95.19;96019.47;4999911;28;20461;-70
2021/12/06 03:29:47;;;;;;;12.95;6.03;;;;;;;-1.16;95.24;96025.63;5001243;28;20469;-70
2021/12/06 03:32:13;;;;;;;14.63;6.40;;;;;;;-1.17;95.49;96037.09;4983570;28;20092;-74
2021/12/06 03:34:39;;;;;;;13.23;6.13;;;;;;;-1.23;96.35;96032.59;4988355;28;20072;-72
2021/12/06 03:37:08;;;;;;;9.98;5.72;;;;;;;-1.29;95.85;96039.41;5000193;28;20092;-71
2021/12/06 03:39:41;;;;;;;9.90;5.88;;;;;;;-1.30;96.77;96040.41;5002113;28;20030;-70
2021/12/06 03:42:12;;;;;;;11.63;6.35;;;;;;;-1.29;96.08;96042.03;4999414;28;20497;-70
2021/12/06 03:44:39;;;;;;;10.57;5.93;;;;;;;-1.33;95.65;96039.94;5000112;28;20030;-70
2021/12/06 03:47:09;;;;;;;10.90;5.80;;;;;;;-1.26;95.55;96053.97;4999208;28;20086;-70
2021/12/06 03:49:36;;;;;;;11.80;6.00;;;;;;;-1.32;95.71;96044.19;4985693;28;20049;-70
2021/12/06 03:52:04;;;;;;;11.77;6.10;;;;;;;-1.29;96.21;96046.47;5004436;28;20038;-70
2021/12/06 03:54:31;;;;;;;10.38;5.32;;;;;;;-1.28;95.62;96046.28;5003485;28;20380;-70
2021/12/06 03:56:58;;;;;;;12.65;6.18;;;;;;;-1.47;95.82;96050.31;5004979;28;20049;-70
2021/12/06 03:59:24;;;;;;;10.57;5.88;;;;;;;-1.52;96.24;96057.09;5006260;28;20041;-70
2021/12/06 04:01:52;;;;;;;14.25;5.65;;;;;;;-1.58;96.23;96061.25;5002300;28;20036;-70
2021/12/06 04:04:22;;;;;;;12.07;6.50;;;;;;;-1.66;96.59;96053.47;4989917;28;20488;-71
2021/12/06 04:06:48;;;;;;;15.38;6.40;;;;;;;-1.66;97.10;96065.78;4989763;28;20568;-70
2021/12/06 04:09:15;;;;;;;12.93;6.25;;;;;;;-1.64;97.34;96069.03;4992886;28;20033;-72
2021/12/06 04:11:42;;;;;;;14.48;6.90;;;;;;;-1.55;97.01;96060.09;4993442;28;20091;-72
2021/12/06 04:14:08;;;;;;;16.58;6.93;;;;;;;-1.54;96.34;96069.59;5003384;28;20037;-71
2021/12/06 04:16:35;;;;;;;16.30;6.72;;;;;;;-1.52;97.17;96068.41;5005557;28;20465;-72
2021/12/06 04:19:02;;;;;;;16.38;7.30;;;;;;;-1.54;97.07;96067.78;4988880;28;20520;-71
2021/12/06 04:21:28;;;;;;;14.35;6.65;;;;;;;-1.67;96.75;96067.59;4982551;28;20361;-70
2021/12/06 04:23:55;;;;;;;15.90;7.00;;;;;;;-1.74;96.99;96071.94;4993534;28;20049;-70
2021/12/06 04:26:22;;;;;;;11.77;5.88;;;;;;;-1.71;96.60;96075.03;4988291;28;20514;-71
2021/12/06 04:28:57;;;;;;;14.13;5.95;;;;;;;-1.52;96.15;96086.78;5004690;28;20034;-71
2021/12/06 04:31:24;;;;;;;13.18;5.88;;;;;;;-1.39;96.68;96080.88;5003584;28;20232;-70
2021/12/06 04:33:50;;;;;;;15.30;6.40;;;;;;;-1.30;96.02;96079.78;5004985;28;20049;-71
2021/12/06 04:36:16;;;;;;;13.98;7.15;;;;;;;-1.16;95.23;96091.25;5004406;28;20034;-71
2021/12/06 04:38:41;;;;;;;19.75;8.98;;;;;;;-1.03;94.90;96090.59;5006129;28;20042;-71
2021/12/06 04:41:07;;;;;;;15.18;8.15;;;;;;;-0.96;94.56;96087.03;4989661;28;20044;-69
2021/12/06 04:43:32;;;;;;;13.93;6.82;;;;;;;-0.95;93.86;96093.09;5005743;28;20364;-71
2021/12/06 04:45:58;;;;;;;13.65;6.80;;;;;;;-0.97;93.92;96093.28;4989433;28;20095;-70
2021/12/06 04:48:24;;;;;;;10.32;5.43;;;;;;;-0.94;93.62;96094.72;5001898;28;20030;-72
2021/12/06 04:50:50;;;;;;;15.00;6.82;;;;;;;-1.00;93.10;96098.13;5005206;28;20062;-69
2021/12/06 04:53:26;;;;;;;13.75;6.10;;;;;;;-0.99;93.86;96097.91;4987219;28;20477;-70
2021/12/06 04:56:00;;;;;;;14.73;7.53;;;;;;;-0.98;93.65;96104.00;4984254;28;20038;-70
2021/12/06 04:58:32;;;;;;;15.50;6.25;;;;;;;-0.92;93.63;96109.31;5004181;28;20268;-70
2021/12/06 05:01:12;;;;;;;13.60;6.35;;;;;;;-0.94;93.66;96111.28;5002668;28;20053;-71
2021/12/06 05:03:40;;;;;;;15.27;7.03;;;;;;;-0.85;93.41;96110.22;5001820;28;20096;-70
2021/12/06 05:06:12;;;;;;;14.93;5.63;;;;;;;-0.82;93.82;96118.72;5004930;28;20034;-69
2021/12/06 05:08:43;;;;;;;15.20;6.60;;;;;;;-0.82;93.60;96116.09;5002394;28;20121;-70
2021/12/06 05:11:10;;;;;;;13.10;6.28;;;;;;;-0.81;93.63;96126.41;4986932;28;20042;-71
2021/12/06 05:13:39;;;;;;;25.20;11.00;;;;;;;-0.76;93.42;96125.84;5002718;28;20026;-70
2021/12/06 05:16:05;;;;;;;14.95;6.20;;;;;;;-0.76;93.29;96131.94;4981355;28;20613;-73
2021/12/06 05:18:31;;;;;;;13.00;6.25;;;;;;;-0.71;93.22;96136.59;5001796;28;20030;-70
2021/12/06 05:20:57;;;;;;;12.75;6.40;;;;;;;-0.68;93.40;96138.88;4985274;28;20096;-71
2021/12/06 05:23:23;;;;;;;15.73;7.03;;;;;;;-0.69;92.72;96140.69;4987446;28;20129;-69
2021/12/06 05:25:48;;;;;;;15.18;6.78;;;;;;;-0.63;93.31;96141.75;5003562;28;20064;-71
2021/12/06 05:28:17;;;;;;;15.95;5.72;;;;;;;-0.62;92.92;96148.66;4991941;28;20038;-69
2021/12/06 05:30:44;;;;;;;25.92;10.30;;;;;;;-0.56;93.64;96150.50;5001265;28;20034;-70
2021/12/06 05:33:17;;;;;;;34.38;13.35;;;;;;;-0.49;92.80;96151.41;5001765;28;20444;-70
2021/12/06 05:35:45;;;;;;;36.35;12.60;;;;;;;-0.46;93.47;96155.50;5004313;28;20401;-70
2021/12/06 05:38:13;;;;;;;20.10;8.75;;;;;;;-0.44;93.10;96159.56;5003103;28;20037;-70
2021/12/06 05:40:39;;;;;;;19.10;6.85;;;;;;;-0.52;92.43;96172.81;5004507;28;20060;-70
2021/12/06 05:43:05;;;;;;;24.15;8.82;;;;;;;-0.55;93.00;96178.44;5003301;28;20426;-70
2021/12/06 05:45:33;;;;;;;29.30;11.55;;;;;;;-0.56;92.91;96182.88;5003141;28;20073;-70
2021/12/06 05:47:59;;;;;;;20.17;8.00;;;;;;;-0.46;93.09;96176.53;5004537;28;20042;-70
2021/12/06 05:50:25;;;;;;;23.95;9.05;;;;;;;-0.38;92.70;96194.81;5005008;28;20039;-70
2021/12/06 05:52:54;;;;;;;26.17;9.05;;;;;;;-0.35;92.82;96192.59;5004236;28;20104;-69
2021/12/06 05:55:21;;;;;;;31.30;11.30;;;;;;;-0.31;92.62;96193.88;5003578;28;20042;-72
2021/12/06 05:57:46;;;;;;;20.17;9.38;;;;;;;-0.36;92.51;96195.44;5004317;28;20032;-70
2021/12/06 06:00:16;;;;;;;21.25;8.45;;;;;;;-0.51;92.79;96186.78;5003834;28;20493;-70
2021/12/06 06:02:42;;;;;;;14.02;6.47;;;;;;;-0.58;93.29;96190.13;5002973;28;20131;-73
2021/12/06 06:05:09;;;;;;;15.35;7.07;;;;;;;-0.61;93.87;96189.72;5002627;28;20482;-70
2021/12/06 06:07:35;;;;;;;11.30;5.18;;;;;;;-0.57;94.19;96198.84;5000452;28;20037;-71
2021/12/06 06:10:02;;;;;;;14.18;7.10;;;;;;;-0.49;95.04;96203.97;5000466;28;20033;-72
2021/12/06 06:12:30;;;;;;;11.55;5.95;;;;;;;-0.37;94.17;96202.50;5002962;28;20033;-70
2021/12/06 06:14:55;;;;;;;11.82;6.78;;;;;;;-0.28;93.52;96218.97;5001464;28;20123;-70
2021/12/06 06:17:21;;;;;;;14.65;5.85;;;;;;;-0.19;93.51;96224.94;5001990;28;20101;-70
2021/12/06 06:19:51;;;;;;;14.00;5.30;;;;;;;-0.22;92.38;96227.94;5003137;28;20548;-71
2021/12/06 06:22:17;;;;;;;11.20;5.13;;;;;;;-0.25;92.55;96230.94;5000386;28;20535;-72
2021/12/06 06:24:42;;;;;;;12.13;5.40;;;;;;;-0.28;91.95;96235.56;5002659;28;20045;-72
2021/12/06 06:27:08;;;;;;;21.58;5.93;;;;;;;-0.43;91.88;96239.25;4984097;28;20084;-71
2021/12/06 06:29:35;;;;;;;14.35;5.82;;;;;;;-0.54;92.89;96240.53;4986434;28;20372;-71
2021/12/06 06:32:01;;;;;;;10.55;5.60;;;;;;;-0.56;93.48;96238.06;5001957;28;20160;-73
2021/12/06 06:34:27;;;;;;;11.88;5.90;;;;;;;-0.60;94.10;96242.09;5001505;28;20025;-72
2021/12/06 06:36:52;;;;;;;13.68;6.75;;;;;;;-0.64;93.74;96247.88;5000198;28;20034;-74
2021/12/06 06:39:19;;;;;;;16.63;6.50;;;;;;;-0.64;93.91;96251.31;5004145;28;20065;-70
2021/12/06 06:41:47;;;;;;;14.38;6.55;;;;;;;-0.64;93.57;96242.63;5002745;28;20022;-70
2021/12/06 06:44:13;;;;;;;25.70;9.27;;;;;;;-0.64;94.29;96248.69;4999224;28;20084;-72
2021/12/06 06:46:38;;;;;;;17.15;8.07;;;;;;;-0.74;94.27;96247.34;5001439;28;20437;-71
2021/12/06 06:49:04;;;;;;;20.35;8.98;;;;;;;-0.84;95.15;96250.28;5002158;28;20045;-69
2021/12/06 06:51:30;;;;;;;16.85;8.32;;;;;;;-0.80;94.99;96246.25;5001267;28;20101;-70
2021/12/06 06:53:56;;;;;;;20.35;8.68;;;;;;;-0.75;95.06;96251.78;5000553;28;20084;-70
2021/12/06 06:56:22;;;;;;;18.88;8.02;;;;;;;-0.83;95.64;96246.63;4998508;28;20444;-74
2021/12/06 06:58:47;;;;;;;15.80;8.05;;;;;;;-0.79;95.50;96254.97;5000292;28;20052;-71
2021/12/06 07:01:13;;;;;;;21.23;9.35;;;;;;;-0.67;95.55;96253.50;5001476;28;20081;-71
2021/12/06 07:03:39;;;;;;;34.42;11.23;;;;;;;-0.69;95.55;96258.97;5002345;28;20358;-73
2021/12/06 07:06:04;;;;;;;17.75;8.18;;;;;;;-0.64;95.02;96263.66;5001664;28;20042;-70
2021/12/06 07:08:30;;;;;;;21.58;8.38;;;;;;;-0.65;94.52;96254.94;5002370;28;20535;-70
2021/12/06 07:10:57;;;;;;;21.25;11.75;;;;;;;-0.68;94.60;96251.88;5001219;28;20033;-71
2021/12/06 07:13:26;;;;;;;34.40;12.60;;;;;;;-0.58;94.68;96263.72;5003189;28;20443;-70
2021/12/06 07:15:52;;;;;;;21.42;9.27;;;;;;;-0.52;94.11;96249.03;5003344;28;20464;-71
2021/12/06 07:18:17;;;;;;;13.45;7.28;;;;;;;-0.44;94.35;96254.19;5002632;28;20037;-71
2021/12/06 07:20:43;;;;;;;54.63;20.65;;;;;;;-0.38;93.96;96250.84;4982270;28;20453;-71
2021/12/06 07:23:13;;;;;;;25.65;12.15;;;;;;;-0.42;94.44;96248.75;5003609;28;20050;-70
2021/12/06 07:25:40;;;;;;;16.65;6.43;;;;;;;-0.47;94.23;96253.72;5003519;28;20064;-70
2021/12/06 07:28:07;;;;;;;17.98;8.20;;;;;;;-0.46;94.50;96255.41;4981788;28;20030;-70
2021/12/06 07:30:33;;;;;;;18.50;8.30;;;;;;;-0.37;93.75;96256.91;5002617;28;20048;-72
2021/12/06 07:33:00;;;;;;;18.25;7.07;;;;;;;-0.29;93.87;96259.44;5002197;28;20471;-70
2021/12/06 07:35:29;;;;;;;15.02;7.97;;;;;;;-0.31;93.87;96266.69;5004531;28;20049;-70
2021/12/06 07:37:55;;;;;;;19.60;8.63;;;;;;;-0.34;93.65;96264.41;5002135;28;20471;-70
2021/12/06 07:40:21;;;;;;;19.23;8.35;;;;;;;-0.35;93.73;96268.88;4985275;28;20588;-74
2021/12/06 07:42:47;;;;;;;17.40;7.63;;;;;;;-0.31;93.63;96270.13;5002410;28;20113;-71
2021/12/06 07:45:14;;;;;;;14.18;6.80;;;;;;;-0.31;93.43;96275.41;5002763;28;20038;-71
2021/12/06 07:47:40;;;;;;;24.95;10.70;;;;;;;-0.28;93.09;96275.00;5003607;28;20587;-70
2021/12/06 07:50:09;;;;;;;32.22;14.02;;;;;;;-0.19;93.28;96282.78;5003069;28;20129;-71
2021/12/06 07:52:35;;;;;;;17.95;9.00;;;;;;;-0.14;93.30;96285.69;5002222;28;20307;-71
2021/12/06 07:55:02;;;;;;;16.35;7.30;;;;;;;-0.12;92.37;96275.78;5001822;28;20045;-71
2021/12/06 07:57:28;;;;;;;17.45;8.98;;;;;;;-0.06;92.20;96275.06;5002409;28;20038;-70
2021/12/06 07:59:54;;;;;;;20.95;12.20;;;;;;;-0.08;92.56;96274.41;5001448;28;20088;-72
2021/12/06 08:02:20;;;;;;;43.25;23.63;;;;;;;0.02;92.60;96274.13;5000899;28;20049;-71
2021/12/06 08:04:48;;;;;;;24.10;12.85;;;;;;;0.11;91.83;96280.88;5003516;28;20042;-72
2021/12/06 08:07:15;;;;;;;46.05;24.60;;;;;;;0.19;91.88;96281.56;5002671;28;20041;-72
2021/12/06 08:09:40;;;;;;;21.20;11.77;;;;;;;0.21;91.99;96276.94;5002899;28;20042;-72
2021/12/06 08:12:06;;;;;;;14.35;7.35;;;;;;;0.15;90.90;96275.03;4998843;28;20197;-71
2021/12/06 08:14:32;;;;;;;23.10;13.00;;;;;;;-0.05;91.50;96266.16;5001734;28;20048;-70
2021/12/06 08:16:58;;;;;;;20.45;12.95;;;;;;;-0.08;91.83;96261.25;5000881;28;20065;-70
2021/12/06 08:19:24;;;;;;;20.70;11.27;;;;;;;-0.15;92.41;96258.56;5001762;28;20041;-70
2021/12/06 08:21:49;;;;;;;19.48;8.40;;;;;;;-0.19;92.64;96261.75;5001186;28;20388;-71
2021/12/06 08:24:15;;;;;;;18.60;9.57;;;;;;;-0.25;92.43;96259.84;4999098;28;20049;-71
2021/12/06 08:26:42;;;;;;;12.48;6.75;;;;;;;-0.27;92.77;96254.78;5001554;28;20034;-71
2021/12/06 08:29:12;;;;;;;10.90;6.10;;;;;;;-0.26;91.99;96247.72;5001860;28;20047;-71
2021/12/06 08:31:38;;;;;;;15.77;5.15;;;;;;;-0.28;92.60;96251.34;5001782;28;20042;-71
2021/12/06 08:34:04;;;;;;;28.65;6.13;;;;;;;-0.36;92.31;96251.47;5001938;28;20037;-70
2021/12/06 08:36:30;;;;;;;23.77;6.15;;;;;;;-0.40;92.73;96259.88;5003744;28;20381;-70
2021/12/06 08:38:57;;;;;;;16.25;6.38;;;;;;;-0.46;93.53;96250.94;5004352;28;20029;-73
2021/12/06 08:41:26;;;;;;;12.85;6.85;;;;;;;-0.46;94.18;96256.22;5004827;28;20073;-72
2021/12/06 08:43:53;;;;;;;13.73;7.88;;;;;;;-0.51;93.99;96253.31;5006391;28;20416;-71
2021/12/06 08:46:31;;;;;;;17.52;9.65;;;;;;;-0.52;94.45;96262.19;5005232;28;20440;-72
2021/12/06 08:48:58;;;;;;;18.63;8.90;;;;;;;-0.51;94.40;96258.56;5006334;28;20076;-72
2021/12/06 08:51:30;;;;;;;13.38;7.80;;;;;;;-0.51;94.23;96263.81;5005667;28;20117;-72
2021/12/06 08:54:00;;;;;;;12.45;6.82;;;;;;;-0.47;94.86;96267.69;5003852;28;20057;-73
2021/12/06 08:56:27;;;;;;;16.45;6.60;;;;;;;-0.38;94.56;96261.34;5005820;28;20046;-70
2021/12/06 08:58:53;;;;;;;14.40;7.28;;;;;;;-0.28;94.42;96268.94;5006203;28;20524;-75
2021/12/06 09:01:20;;;;;;;13.00;6.25;;;;;;;-0.21;94.00;96275.09;5006316;28;20124;-71
2021/12/06 09:03:46;;;;;;;9.35;5.50;;;;;;;-0.03;94.22;96275.47;5005865;28;20424;-72
2021/12/06 09:06:13;;;;;;;17.20;6.68;;;;;;;0.22;93.64;96283.81;5004875;28;20033;-70
2021/12/06 09:08:41;;;;;;;24.15;6.88;;;;;;;0.59;92.35;96281.94;5005760;28;20032;-70
2021/12/06 09:11:07;;;;;;;17.48;6.47;;;;;;;1.27;90.41;96288.28;5002597;28;20049;-70
2021/12/06 09:13:36;;;;;;;15.63;6.18;;;;;;;2.44;85.93;96282.00;5005163;28;20026;-70
2021/12/06 09:16:04;;;;;;;18.25;7.20;;;;;;;3.70;77.80;96277.34;5005155;28;20057;-70
2021/12/06 09:18:34;;;;;;;16.52;5.85;;;;;;;4.73;72.93;96271.88;5005031;28;20025;-71
2021/12/06 09:21:03;;;;;;;17.35;6.05;;;;;;;5.55;69.04;96272.53;5004831;28;20042;-71
2021/12/06 09:23:29;;;;;;;18.95;6.88;;;;;;;6.08;66.76;96269.28;5002110;28;20161;-71
2021/12/06 09:25:55;;;;;;;15.00;4.85;;;;;;;6.28;65.16;96253.88;4999950;28;20080;-69
2021/12/06 09:28:21;;;;;;;13.43;5.55;;;;;;;6.97;62.72;96256.91;5002780;28;20070;-70
2021/12/06 09:30:47;;;;;;;8.65;4.40;;;;;;;6.98;62.08;96258.53;5004847;28;20361;-73
2021/12/06 09:33:15;;;;;;;12.98;4.45;;;;;;;7.36;61.46;96258.06;5002639;28;20042;-70
2021/12/06 09:35:44;;;;;;;18.02;4.60;;;;;;;7.48;59.75;96258.88;5004911;28;20044;-72
2021/12/06 09:38:14;;;;;;;7.63;3.80;;;;;;;7.36;60.04;96259.91;5000472;28;20026;-70
2021/12/06 09:40:43;;;;;;;26.35;8.23;;;;;;;8.00;59.45;96264.19;5005241;28;20068;-72
2021/12/06 09:43:11;;;;;;;15.35;4.78;;;;;;;8.40;58.85;96259.91;5001391;28;20045;-70
2021/12/06 09:45:37;;;;;;;16.60;4.45;;;;;;;9.09;55.64;96264.00;5003228;28;20034;-72
2021/12/06 09:48:04;;;;;;;10.30;4.25;;;;;;;9.64;56.48;96259.72;4969573;28;20036;-71
2021/12/06 09:50:37;;;;;;;18.83;4.68;;;;;;;10.01;54.55;96254.56;5005138;28;20034;-72
2021/12/06 09:53:08;;;;;;;8.50;3.97;;;;;;;10.27;53.59;96243.16;5002390;28;20053;-74
2021/12/06 09:55:35;;;;;;;7.97;4.18;;;;;;;10.17;53.86;96253.69;5003757;28;20049;-70
2021/12/06 09:58:02;;;;;;;7.78;4.03;;;;;;;9.81;55.13;96257.81;5003577;28;20108;-72
2021/12/06 10:00:34;;;;;;;11.40;4.32;;;;;;;10.95;50.59;96256.88;5003611;28;20471;-72
2021/12/06 10:02:59;;;;;;;12.75;4.35;;;;;;;11.34;52.18;96254.75;5003448;28;20491;-70
2021/12/06 10:05:29;;;;;;;9.35;4.68;;;;;;;11.32;51.71;96261.44;5001705;28;20033;-70
2021/12/06 10:07:58;;;;;;;8.27;4.35;;;;;;;12.25;48.15;96259.00;5002025;28;20072;-70
2021/12/06 10:10:25;;;;;;;11.70;5.45;;;;;;;12.85;47.44;96254.84;5003578;28;20077;-74
2021/12/06 10:12:52;;;;;;;8.25;4.30;;;;;;;12.89;44.90;96255.09;5004195;28;20716;-74
2021/12/06 10:15:25;;;;;;;7.18;4.43;;;;;;;11.93;46.97;96253.78;5003024;28;20079;-70
2021/12/06 10:17:56;;;;;;;9.70;4.57;;;;;;;13.43;50.60;96255.38;5002852;28;20033;-72
2021/12/06 10:20:23;;;;;;;11.68;5.43;;;;;;;14.67;42.41;96243.88;5003862;28;20041;-70
2021/12/06 10:22:50;;;;;;;8.10;4.78;;;;;;;15.31;41.96;96240.94;5004895;28;20034;-73
2021/12/06 10:25:16;;;;;;;9.93;5.00;;;;;;;15.02;38.73;96232.06;5002397;28;20092;-72
2021/12/06 10:27:57;;;;;;;11.40;4.45;;;;;;;14.32;42.00;96234.09;5002616;28;20057;-72
2021/12/06 10:30:24;;;;;;;7.38;4.50;;;;;;;15.04;41.83;96227.19;5003411;28;20055;-74
2021/12/06 10:33:00;;;;;;;8.75;4.13;;;;;;;13.81;40.74;96220.88;5002294;28;20053;-72
2021/12/06 10:35:25;;;;;;;6.18;4.20;;;;;;;15.28;41.93;96211.06;5001816;28;20052;-73
2021/12/06 10:37:57;;;;;;;7.65;4.50;;;;;;;15.66;39.68;96206.69;5003329;28;20025;-73
2021/12/06 10:40:27;;;;;;;7.60;4.45;;;;;;;14.90;41.51;96201.97;5003395;28;20507;-71
2021/12/06 10:42:54;;;;;;;7.82;4.28;;;;;;;12.40;43.06;96210.75;5001761;28;20030;-72
2021/12/06 10:45:23;;;;;;;8.75;4.95;;;;;;;13.29;44.02;96214.00;4999623;28;20037;-70
2021/12/06 10:48:09;;;;;;;9.60;6.27;;;;;;;12.66;43.89;96208.91;4998317;28;20124;-68
2021/12/06 10:50:43;;;;;;;14.95;4.50;;;;;;;10.30;49.16;96210.53;4997472;28;20116;-68
2021/12/06 10:53:11;;;;;;;9.90;5.28;;;;;;;7.63;56.64;96209.66;4992796;28;20122;-70
2021/12/06 10:55:38;;;;;;;7.35;4.28;;;;;;;6.97;60.53;96217.81;4993880;28;20031;-69
2021/12/06 10:58:07;;;;;;;9.50;4.75;;;;;;;6.69;60.86;96223.81;4996222;28;20034;-68
2021/12/06 11:00:43;;;;;;;7.25;5.22;;;;;;;11.06;50.78;96212.28;4993578;28;20448;-69
2021/12/06 11:03:18;;;;;;;7.80;4.38;;;;;;;13.32;43.75;96210.78;4998057;28;20038;-72
2021/12/06 11:05:44;;;;;;;7.63;4.38;;;;;;;15.04;40.59;96209.13;4981914;28;20076;-69
2021/12/06 11:08:12;;;;;;;7.75;4.50;;;;;;;17.42;36.51;96210.91;4995919;28;20119;-71
2021/12/06 11:10:44;;;;;;;7.60;4.65;;;;;;;17.15;36.88;96206.25;4995480;28;20508;-72
2021/12/06 11:13:24;;;;;;;7.05;4.00;;;;;;;17.51;33.33;96211.88;4995029;28;20501;-73
2021/12/06 11:15:58;;;;;;;8.02;4.97;;;;;;;15.59;35.25;96222.38;4998307;28;20037;-73
2021/12/06 11:18:45;;;;;;;8.73;4.70;;;;;;;17.19;34.16;96210.75;4998133;28;20046;-71
2021/12/06 11:21:29;;;;;;;9.45;4.75;;;;;;;17.77;32.34;96212.22;4994872;28;20543;-72
2021/12/06 11:24:09;;;;;;;7.15;4.85;;;;;;;18.47;31.62;96211.06;4995304;28;20050;-69
2021/12/06 11:26:58;;;;;;;9.18;5.28;;;;;;;18.58;32.04;96209.72;4993211;28;20046;-70
2021/12/06 11:29:28;;;;;;;6.53;3.97;;;;;;;19.06;30.49;96209.97;4996413;28;20115;-70
2021/12/06 11:32:05;;;;;;;;;;;;;;;19.02;31.02;96206.28;4994342;28;20459;-69
2021/12/06 11:34:36;;;;;;;7.60;4.22;;;;;;;19.13;29.54;96207.63;4996372;28;19917;-70
2021/12/06 11:37:04;;;;;;;8.07;4.30;;;;;;;20.15;32.14;96202.22;4994927;28;20052;-70
2021/12/06 11:39:30;;;;;;;7.18;3.92;;;;;;;18.69;29.01;96211.13;4978927;28;20049;-69
2021/12/06 11:41:58;;;;;;;8.60;4.10;;;;;;;17.81;31.00;96207.78;4993562;28;20233;-70
2021/12/06 11:44:30;;;;;;;8.27;4.13;;;;;;;18.63;33.11;96204.19;4993046;28;20034;-71